Home > Products > Valid Products > TAF

000
FTUS43 KMPX 031015 AAA
TAFRWF
TAF AMD
KRWF 031015Z 0310/0406 14012KT P6SM OVC050
     FM031200 16009KT 1 1/2SM -SN OVC008
     FM031600 33021G31KT 1/2SM -SN BLSN OVC005
     FM031900 32025G34KT 3/4SM BLSN FEW007 BKN020
     FM040100 30015G25KT P6SM SKC=



000
FTUS43 KMPX 031015 AAA
TAFSTC
TAF AMD
KSTC 031015Z 0310/0406 15008KT 6SM -SN OVC040
     FM031300 18007KT 1 1/2SM -SN BR OVC015
     FM031500 25013G18KT 1 1/2SM -SN OVC010
     FM032000 31021G30KT 5SM BLSN FEW007 BKN040
     FM040100 30015G25KT P6SM SKC=



000
FTUS43 KMPX 030850 AAA
TAFMSP
TAF AMD
KMSP 030850Z 0309/0412 13008KT P6SM OVC070
     FM031100 13007KT 3SM -SN OVC025
     FM031200 14005KT 1 1/2SM -SN OVC015
      TEMPO 0314/0316 1SM -SN VV008
     FM031700 29012G20KT 3SM -SN BKN007 OVC015
     FM031900 31022G32KT 6SM BLSN FEW007 BKN025
     FM032300 29018G26KT P6SM FEW025 SCT050=



000
FTUS43 KMPX 030850 AAA
TAFMSP
TAF AMD
KMSP 030850Z 0309/0412 13008KT P6SM OVC070
     FM031100 13007KT 3SM -SN OVC025
     FM031200 14005KT 1 1/2SM -SN OVC015
      TEMPO 0314/0316 1SM -SN VV008
     FM031700 29012G20KT 3SM -SN BKN007 OVC015
     FM031900 31022G32KT 6SM BLSN FEW007 BKN025
     FM032300 29018G26KT P6SM FEW025 SCT050=



000
FTUS43 KMPX 030520
TAFEAU
TAF
KEAU 030520Z 0306/0406 17007KT P6SM -SN OVC090
     FM031200 14008KT 1 1/2SM -SN OVC015
      TEMPO 0314/0316 1SM -SN VV007
     FM031800 29017G22KT 1SM -SN BKN007 OVC015
     FM032000 31020G25KT 4SM -SN FEW007 OVC020
     FM040100 29016G21KT P6SM FEW025 SCT050=



000
FTUS43 KMPX 030520
TAFMSP
TAF
KMSP 030520Z 0306/0412 15010KT P6SM -SN OVC050
     FM031100 15010KT 3SM -SN OVC025
     FM031200 14008KT 1 1/2SM -SN OVC015
      TEMPO 0314/0316 1SM -SN VV008
     FM031700 31017G25KT 1 1/2SM -SN BKN007 OVC015
     FM031900 31022G32KT 6SM BLSN FEW007 BKN025
     FM032300 29018G26KT P6SM FEW025 SCT050=



000
FTUS43 KMPX 030520
TAFAXN
TAF
KAXN 030520Z 0306/0406 16016KT P6SM OVC050
     FM030900 18013KT 2SM -SN OVC020
     FM031000 18010KT 3/4SM -SN VV005
     FM031200 32019G27KT 1/4SM SN BLSN VV005
     FM031400 32023G31KT 3/4SM -SN BLSN FEW007 BKN020
     FM031800 32023G31KT 1 1/2SM BLSN FEW015 BKN040
     FM040100 30015G25KT P6SM SKC=



000
FTUS43 KMPX 030520
TAFAXN
TAF
KAXN 030520Z 0306/0406 16016KT P6SM -SN OVC025
     FM030800 18013KT 2SM -SN OVC020
     FM031000 18010KT 3/4SM -SN VV005
     FM031200 32019G27KT 1/4SM SN BLSN VV005
     FM031400 32023G31KT 3/4SM -SN BLSN FEW007 BKN020
     FM031800 32023G31KT 1 1/2SM BLSN FEW015 BKN040
     FM040100 30015G25KT P6SM SKC=



000
FTUS43 KMPX 030520
TAFSTC
TAF
KSTC 030520Z 0306/0406 16012KT P6SM -SN FEW070 BKN100
     FM030900 16012KT 3SM -SN BR OVC025
     FM031000 15008KT 1 1/2SM -SN OVC010
     FM031300 18007KT 1/2SM SN VV005
     FM031500 25013G18KT 1 1/2SM -SN OVC010
     FM032000 31021G30KT 5SM BLSN FEW007 BKN040
     FM040100 30015G25KT P6SM SKC=



000
FTUS43 KMPX 030520
TAFRWF
TAF
KRWF 030520Z 0306/0406 16015KT P6SM OVC080
     FM030900 16012KT 3SM -SN OVC030
     FM031100 16009KT 1 1/2SM -SN OVC008
     FM031600 33021G31KT 1/2SM -SN BLSN OVC005
     FM031900 32025G34KT 3/4SM BLSN FEW007 BKN020
     FM040100 30015G25KT P6SM SKC=



000
FTUS43 KMPX 030303 AAA
TAFMSP
TAF AMD
KMSP 030303Z 0303/0406 15010KT P6SM OVC080
     FM031100 15010KT 3SM -SN OVC025
     FM031200 14008KT 1 1/2SM -SN OVC015
      TEMPO 0314/0316 3/4SM -SN VV007
     FM031700 31017G25KT 1 1/2SM -SN BKN007 OVC015
     FM031900 31022G32KT 6SM BLSN FEW007 BKN025
     FM040100 29018G27KT P6SM SCT025 BKN050=



000
FTUS43 KMPX 022342
TAFRWF
TAF
KRWF 022342Z 0300/0324 16015G23KT P6SM OVC080
     FM030700 16014KT 3SM -SN OVC030
     FM030900 16009KT 1 1/2SM -SN OVC008
     FM031300 25013KT 1/2SM SN VV005
     FM031600 33021G31KT 3/4SM -SN BLSN OVC005
     FM031900 32025G34KT 3/4SM BLSN FEW007 BKN020=



000
FTUS43 KMPX 022342
TAFSTC
TAF
KSTC 022342Z 0300/0324 18012KT P6SM FEW070 BKN100
     FM030700 16012KT 3SM -SN BR OVC025
     FM030900 15008KT 1 1/2SM -SN OVC007
     FM031200 18008KT 1/2SM SN VV005
     FM031700 25013G18KT 3/4SM -SN OVC005
     FM032000 31021G30KT 2SM BLSN FEW007 BKN020=



000
FTUS43 KMPX 022342
TAFEAU
TAF
KEAU 022342Z 0300/0324 17007KT P6SM BKN100
     FM031100 14008KT 1 1/2SM -SN OVC015
      TEMPO 0314/0316 3/4SM -SN VV007
     FM031800 29017G22KT 1 1/2SM -SN BKN007 OVC015
     FM032000 31020G25KT 4SM -SN FEW007 OVC020=



000
FTUS43 KMPX 022342
TAFMSP
TAF
KMSP 022342Z 0300/0406 15012KT P6SM BKN100
     FM031000 15010KT 3SM -SN OVC025
     FM031100 14008KT 1 1/2SM -SN OVC015
      TEMPO 0314/0316 3/4SM -SN VV007
     FM031800 31017G25KT 1 1/2SM -SN BKN007 OVC015
     FM032000 31022G32KT 4SM BLSN FEW007 OVC020
     FM040100 29018G27KT P6SM SCT025 BKN050=



000
FTUS43 KMPX 022342
TAFAXN
TAF
KAXN 022342Z 0300/0324 16015G23KT P6SM FEW050 BKN100
     FM030600 16017KT P6SM BKN030
     FM030700 18017KT 2SM -SN OVC015
     FM031000 18012KT 1/2SM SN VV005
     FM031400 32019G27KT 1/4SM SN BLSN VV005
     FM031700 32023G31KT 3/4SM BLSN FEW007 BKN020=



000
FTUS43 KMPX 022342
TAFSTC
TAF
KSTC 022342Z 0300/0324 18012KT P6SM FEW070 BKN100
     FM030700 16012KT 3SM -SN BR OVC025
     FM030900 15008KT 1 1/2SM -SN OVC007
     FM031200 18008KT 1/2SM SN VV005
     FM031700 25013G18KT 3/4SM -SN OVC005
     FM032000 31021G30KT 2SM BLSN FEW007 BKN020=



000
FTUS43 KMPX 022342
TAFEAU
TAF
KEAU 022342Z 0300/0324 17007KT P6SM BKN100
     FM031100 14008KT 1 1/2SM -SN OVC015
      TEMPO 0314/0316 3/4SM -SN VV007
     FM031800 29017G22KT 1 1/2SM -SN BKN007 OVC015
     FM032000 31020G25KT 4SM -SN FEW007 OVC020=



000
FTUS43 KMPX 022342
TAFAXN
TAF
KAXN 022342Z 0300/0324 16015G23KT P6SM FEW050 BKN100
     FM030600 16017KT P6SM BKN030
     FM030700 18017KT 2SM -SN OVC015
     FM031000 18012KT 1/2SM SN VV005
     FM031400 32019G27KT 1/4SM SN BLSN VV005
     FM031700 32023G31KT 3/4SM BLSN FEW007 BKN020=



000
FTUS43 KMPX 022342
TAFRWF
TAF
KRWF 022342Z 0300/0324 16015G23KT P6SM OVC080
     FM030700 16014KT 3SM -SN OVC030
     FM030900 16009KT 1 1/2SM -SN OVC008
     FM031300 25013KT 1/2SM SN VV005
     FM031600 33021G31KT 3/4SM -SN BLSN OVC005
     FM031900 32025G34KT 3/4SM BLSN FEW007 BKN020=



000
FTUS43 KMPX 022342
TAFMSP
TAF
KMSP 022342Z 0300/0406 15012KT P6SM BKN100
     FM031000 15010KT 3SM -SN OVC025
     FM031100 14008KT 1 1/2SM -SN OVC015
      TEMPO 0314/0316 3/4SM -SN VV007
     FM031800 31017G25KT 1 1/2SM -SN BKN007 OVC015
     FM032000 31022G32KT 4SM BLSN FEW007 OVC020
     FM040100 29018G27KT P6SM SCT025 BKN050=



000
FTUS43 KMPX 022104 AAA
TAFMSP
TAF AMD
KMSP 022104Z 0221/0324 16009KT P6SM SCT250
     FM030000 15012KT P6SM SCT050 OVC100
     FM030800 15010KT 4SM -SN OVC020
     FM031000 14009KT 1 1/2SM -SN BR OVC010
     FM031800 31017G25KT 3/4SM -SN BLSN OVC007
     FM032100 31022G32KT 3SM BLSN OVC020=



000
FTUS43 KMPX 022104 AAA
TAFMSP
TAF AMD
KMSP 022104Z 0221/0324 16009KT P6SM SCT250
     FM030000 15012KT P6SM SCT050 OVC100
     FM030800 15010KT 4SM -SN OVC020
     FM031000 14009KT 1 1/2SM -SN BR OVC010
     FM031800 31017G25KT 3/4SM -SN BLSN OVC007
     FM032100 31022G32KT 3SM BLSN OVC020=



000
FTUS43 KMPX 021857 AAA
TAFAXN
TAF AMD
KAXN 021857Z 0219/0318 17013KT P6SM SCT250
     FM022100 16015G23KT P6SM FEW050 BKN100
     FM030300 16017KT P6SM BKN030
     FM030500 18017KT 2SM -SN BR OVC015
     FM030700 18012KT 1/2SM SN FZFG OVC005
     FM031500 32019G29KT 1/4SM SN BLSN OVC005=



000
FTUS43 KMPX 021857 AAA
TAFAXN
TAF AMD
KAXN 021857Z 0219/0318 17013KT P6SM SCT250
     FM022100 16015G23KT P6SM FEW050 BKN100
     FM030300 16017KT P6SM BKN030
     FM030500 18017KT 2SM -SN BR OVC015
     FM030700 18012KT 1/2SM SN FZFG OVC005
     FM031500 32019G29KT 1/4SM SN BLSN OVC005=



000
FTUS43 KMPX 021801 AAA
TAFRWF
TAF AMD
KRWF 021801Z 0218/0318 18013KT P6SM BKN250
     FM021900 16015G23KT P6SM FEW070 BKN100
     FM030500 16014KT 4SM -SN OVC030
     FM030700 16009KT 1 1/2SM -SN BR OVC008
     FM031200 25013KT 1/2SM SN FZFG OVC005
     FM031600 33021G31KT 1/4SM SN BLSN OVC005=



000
FTUS43 KMPX 021801 AAA
TAFRWF
TAF AMD
KRWF 021801Z 0218/0318 18013KT P6SM BKN250
     FM021900 16015G23KT P6SM FEW070 BKN100
     FM030500 16014KT 4SM -SN OVC030
     FM030700 16009KT 1 1/2SM -SN BR OVC008
     FM031200 25013KT 1/2SM SN FZFG OVC005
     FM031600 33021G31KT 1/4SM SN BLSN OVC005=



000
FTUS43 KMPX 021800 AAA
TAFSTC
TAF AMD
KSTC 021800Z 0218/0318 18012KT P6SM FEW250
     FM022200 16012KT P6SM FEW070 BKN100
     FM030400 16012KT 3SM -SN BR OVC025
     FM030700 15008KT 1 1/2SM -SN BR OVC007
     FM031100 18008KT 1/2SM SN FZFG OVC005
     FM031700 25013G18KT 1/2SM SN FZFG OVC005=



000
FTUS43 KMPX 021800 AAA
TAFSTC
TAF AMD
KSTC 021800Z 0218/0318 18012KT P6SM FEW250
     FM022200 16012KT P6SM FEW070 BKN100
     FM030400 16012KT 3SM -SN BR OVC025
     FM030700 15008KT 1 1/2SM -SN BR OVC007
     FM031100 18008KT 1/2SM SN FZFG OVC005
     FM031700 25013G18KT 1/2SM SN FZFG OVC005=



000
FTUS43 KMPX 021728
TAFAXN
TAF
KAXN 021728Z 0218/0318 19013KT P6SM SCT250
     FM022100 16015G23KT P6SM FEW050 BKN100
     FM030300 16017KT P6SM BKN030
     FM030500 18017KT 2SM -SN BR OVC015
     FM030700 18012KT 1/2SM SN FZFG OVC005
     FM031500 32019G29KT 1/4SM SN BLSN OVC005=



000
FTUS43 KMPX 021728
TAFSTC
TAF
KSTC 021728Z 0218/0318 16009KT P6SM FEW250
     FM022200 16012KT P6SM FEW070 BKN100
     FM030400 16012KT 3SM -SN BR OVC025
     FM030700 15008KT 1 1/2SM -SN BR OVC007
     FM031100 18008KT 1/2SM SN FZFG OVC005
     FM031700 25013G18KT 1/2SM SN FZFG OVC005=



000
FTUS43 KMPX 021728
TAFRWF
TAF
KRWF 021728Z 0218/0318 22007KT P6SM BKN250
     FM021900 16015G23KT P6SM FEW070 BKN100
     FM030500 16014KT 4SM -SN OVC030
     FM030700 16009KT 1 1/2SM -SN BR OVC008
     FM031200 25013KT 1/2SM SN FZFG OVC005
     FM031600 33021G31KT 1/4SM SN BLSN OVC005=



000
FTUS43 KMPX 021728
TAFEAU
TAF
KEAU 021728Z 0218/0318 VRB04KT P6SM FEW250
     FM030000 16007KT P6SM OVC100
     FM031000 14008KT 1 1/2SM -SN BR OVC015=



000
FTUS43 KMPX 021728
TAFAXN
TAF
KAXN 021728Z 0218/0318 19013KT P6SM SCT250
     FM022100 16015G23KT P6SM FEW050 BKN100
     FM030300 16017KT P6SM BKN030
     FM030500 18017KT 2SM -SN BR OVC015
     FM030700 18012KT 1/2SM SN FZFG OVC005
     FM031500 32019G29KT 1/4SM SN BLSN OVC005=



000
FTUS43 KMPX 021728
TAFSTC
TAF
KSTC 021728Z 0218/0318 16009KT P6SM FEW250
     FM022200 16012KT P6SM FEW070 BKN100
     FM030400 16012KT 3SM -SN BR OVC025
     FM030700 15008KT 1 1/2SM -SN BR OVC007
     FM031100 18008KT 1/2SM SN FZFG OVC005
     FM031700 25013G18KT 1/2SM SN FZFG OVC005=



000
FTUS43 KMPX 021728
TAFRWF
TAF
KRWF 021728Z 0218/0318 22007KT P6SM BKN250
     FM021900 16015G23KT P6SM FEW070 BKN100
     FM030500 16014KT 4SM -SN OVC030
     FM030700 16009KT 1 1/2SM -SN BR OVC008
     FM031200 25013KT 1/2SM SN FZFG OVC005
     FM031600 33021G31KT 1/4SM SN BLSN OVC005=



000
FTUS43 KMPX 021728
TAFMSP
TAF
KMSP 021728Z 0218/0324 18009KT P6SM SCT250
     FM030000 15012KT P6SM SCT050 OVC100
     FM030800 15010KT 4SM -SN OVC020
     FM031000 14009KT 1 1/2SM -SN BR OVC010
     FM031800 31017G25KT 3/4SM -SN BLSN OVC007
     FM032100 31022G32KT 3SM BLSN OVC020=



000
FTUS43 KMPX 021728
TAFMSP
TAF
KMSP 021728Z 0218/0324 18009KT P6SM SCT250
     FM030000 15012KT P6SM SCT050 OVC100
     FM030800 15010KT 4SM -SN OVC020
     FM031000 14009KT 1 1/2SM -SN BR OVC010
     FM031800 31017G25KT 3/4SM -SN BLSN OVC007
     FM032100 31022G32KT 3SM BLSN OVC020=



000
FTUS43 KMPX 021728
TAFEAU
TAF
KEAU 021728Z 0218/0318 VRB04KT P6SM FEW250
     FM030000 16007KT P6SM OVC100
     FM031000 14008KT 1 1/2SM -SN BR OVC015=



000
FTUS43 KMPX 021442 AAA
TAFMSP
TAF AMD
KMSP 021442Z 0215/0318 22006KT P6SM SKC
     FM021900 16008KT P6SM SCT250
     FM030000 15012G18KT P6SM SCT060 OVC100
     FM030500 15010KT P6SM VCSH OVC040
     FM030900 14008KT 1 1/2SM -SN BR OVC012
     FM031300 19008KT 1/2SM SN FZFG OVC007=



000
FTUS43 KMPX 021442 AAA
TAFMSP
TAF AMD
KMSP 021442Z 0215/0318 22006KT P6SM SKC
     FM021900 16008KT P6SM SCT250
     FM030000 15012G18KT P6SM SCT060 OVC100
     FM030500 15010KT P6SM VCSH OVC040
     FM030900 14008KT 1 1/2SM -SN BR OVC012
     FM031300 19008KT 1/2SM SN FZFG OVC007=



000
FTUS43 KMPX 021140
TAFEAU
TAF
KEAU 021140Z 0212/0312 22003KT P6SM SKC
     FM030000 16007KT P6SM OVC100
     FM031000 14008KT 2SM -SN BR OVC020=



000
FTUS43 KMPX 021140
TAFMSP
TAF
KMSP 021140Z 0212/0318 22003KT P6SM SKC
     FM021900 16008KT P6SM SCT250
     FM030000 15012G18KT P6SM SCT060 OVC100
     FM030500 15010KT P6SM VCSH OVC040
     FM031000 14008KT 1 1/2SM -SN BR OVC012=



000
FTUS43 KMPX 021140
TAFSTC
TAF
KSTC 021140Z 0212/0312 21004KT P6SM SKC
     FM021800 16010KT P6SM SKC
     FM022200 16012KT P6SM FEW070 BKN100
     FM030400 16012KT 3SM -SN BR OVC025
     FM030900 15008KT 1 1/2SM -SN BR OVC008=



000
FTUS43 KMPX 021140
TAFRWF
TAF
KRWF 021140Z 0212/0312 22007KT P6SM SKC
     FM021900 16015G23KT P6SM FEW070 BKN100
     FM030500 16014KT P6SM VCSH OVC050
     FM030900 16008KT 2SM -SN BR OVC008=



000
FTUS43 KMPX 021140
TAFAXN
TAF
KAXN 021140Z 0212/0312 19007KT P6SM SKC
     FM022000 16015G23KT P6SM FEW070 BKN100
     FM030500 18017G24KT 2SM -SN BR OVC015
     FM030700 18012KT 1/2SM SN FZFG VV004=



000
FTUS43 KMPX 021140
TAFSTC
TAF
KSTC 021140Z 0212/0312 21004KT P6SM SKC
     FM021800 16010KT P6SM SKC
     FM022200 16012KT P6SM FEW070 BKN100
     FM030400 16012KT 3SM -SN BR OVC025
     FM030900 15008KT 1 1/2SM -SN BR OVC008=



000
FTUS43 KMPX 021140
TAFRWF
TAF
KRWF 021140Z 0212/0312 22007KT P6SM SKC
     FM021900 16015G23KT P6SM FEW070 BKN100
     FM030500 16014KT P6SM VCSH OVC050
     FM030900 16008KT 2SM -SN BR OVC008=



000
FTUS43 KMPX 021140
TAFAXN
TAF
KAXN 021140Z 0212/0312 19007KT P6SM SKC
     FM022000 16015G23KT P6SM FEW070 BKN100
     FM030500 18017G24KT 2SM -SN BR OVC015
     FM030700 18012KT 1/2SM SN FZFG VV004=



000
FTUS43 KMPX 021140
TAFMSP
TAF
KMSP 021140Z 0212/0318 22003KT P6SM SKC
     FM021900 16008KT P6SM SCT250
     FM030000 15012G18KT P6SM SCT060 OVC100
     FM030500 15010KT P6SM VCSH OVC040
     FM031000 14008KT 1 1/2SM -SN BR OVC012=



000
FTUS43 KMPX 021140
TAFEAU
TAF
KEAU 021140Z 0212/0312 22003KT P6SM SKC
     FM030000 16007KT P6SM OVC100
     FM031000 14008KT 2SM -SN BR OVC020=



000
FTUS43 KMPX 020929 AAA
TAFMSP
TAF AMD
KMSP 020929Z 0209/0312 26004KT P6SM SKC
     FM021200 24004KT P6SM SKC
     FM021600 17007KT P6SM SCT100
     FM030000 15012G19KT P6SM SCT060 OVC100
     FM030900 15008KT 1 1/2SM -SN OVC015=



000
FTUS43 KMPX 020929 AAA
TAFMSP
TAF AMD
KMSP 020929Z 0209/0312 26004KT P6SM SKC
     FM021200 24004KT P6SM SKC
     FM021600 17007KT P6SM SCT100
     FM030000 15012G19KT P6SM SCT060 OVC100
     FM030900 15008KT 1 1/2SM -SN OVC015=



000
FTUS43 KMPX 020520
TAFRWF
TAF
KRWF 020520Z 0206/0306 30010KT P6SM SKC
     FM021300 19006KT P6SM FEW100
     FM022000 16018G25KT P6SM FEW070 OVC100=



000
FTUS43 KMPX 020520
TAFEAU
TAF
KEAU 020520Z 0206/0306 26008KT P6SM FEW250
     FM021400 23004KT P6SM SCT250
     FM022000 19007KT P6SM BKN100=



000
FTUS43 KMPX 020520
TAFMSP
TAF
KMSP 020520Z 0206/0312 29008KT P6SM FEW030
     FM021200 24004KT P6SM FEW250
     FM021600 17007KT P6SM SCT100
     FM030000 15012G19KT P6SM SCT060 OVC100
     FM030900 15008KT 1 1/2SM -SN OVC015=



000
FTUS43 KMPX 020520
TAFAXN
TAF
KAXN 020520Z 0206/0306 30009KT P6SM FEW250
     FM021300 19006KT P6SM SCT100
     FM021900 16018G25KT P6SM FEW070 OVC100=



000
FTUS43 KMPX 020520
TAFSTC
TAF
KSTC 020520Z 0206/0306 30009KT P6SM FEW250
     FM021500 19005KT P6SM FEW050 SCT250
     FM022000 16010G16KT P6SM FEW070 OVC100=



000
FTUS43 KMPX 020520
TAFEAU
TAF
KEAU 020520Z 0206/0306 26008KT P6SM FEW250
     FM021400 23004KT P6SM SCT250
     FM022000 19007KT P6SM BKN100=



000
FTUS43 KMPX 020520
TAFMSP
TAF
KMSP 020520Z 0206/0312 29008KT P6SM FEW030
     FM021200 24004KT P6SM FEW250
     FM021600 17007KT P6SM SCT100
     FM030000 15012G19KT P6SM SCT060 OVC100
     FM030900 15008KT 1 1/2SM -SN OVC015=



000
FTUS43 KMPX 020520
TAFRWF
TAF
KRWF 020520Z 0206/0306 30010KT P6SM SKC
     FM021300 19006KT P6SM FEW100
     FM022000 16018G25KT P6SM FEW070 OVC100=



000
FTUS43 KMPX 020520
TAFAXN
TAF
KAXN 020520Z 0206/0306 30009KT P6SM FEW250
     FM021300 19006KT P6SM SCT100
     FM021900 16018G25KT P6SM FEW070 OVC100=



000
FTUS43 KMPX 020520
TAFSTC
TAF
KSTC 020520Z 0206/0306 30009KT P6SM FEW250
     FM021500 19005KT P6SM FEW050 SCT250
     FM022000 16010G16KT P6SM FEW070 OVC100=



000
FTUS43 KMPX 020309 AAA
TAFSTC
TAF AMD
KSTC 020309Z 0203/0224 29013KT P6SM BKN030
      TEMPO 0203/0205 SCT030
     FM020500 29009KT P6SM FEW250
     FM021500 17005KT P6SM FEW050 SCT250
     FM022100 16010G18KT P6SM FEW070 OVC100=



000
FTUS43 KMPX 020309 AAA
TAFSTC
TAF AMD
KSTC 020309Z 0203/0224 29013KT P6SM BKN030
      TEMPO 0203/0205 SCT030
     FM020500 29009KT P6SM FEW250
     FM021500 17005KT P6SM FEW050 SCT250
     FM022100 16010G18KT P6SM FEW070 OVC100=



000
FTUS43 KMPX 020307 AAA
TAFMSP
TAF AMD
KMSP 020307Z 0203/0306 28015KT P6SM BKN035
     FM020600 28008KT P6SM FEW250
     FM021500 19004KT P6SM SCT250
     FM021800 17009KT P6SM BKN100
     FM030000 15012G19KT P6SM SCT060 OVC100=



000
FTUS43 KMPX 020307 AAA
TAFMSP
TAF AMD
KMSP 020307Z 0203/0306 28015KT P6SM BKN035
     FM020600 28008KT P6SM FEW250
     FM021500 19004KT P6SM SCT250
     FM021800 17009KT P6SM BKN100
     FM030000 15012G19KT P6SM SCT060 OVC100=



000
FTUS43 KMPX 012336
TAFAXN
TAF
KAXN 012336Z 0200/0224 29013G18KT 6SM -SN BKN030
     FM020200 29009KT P6SM FEW030 SCT250
     FM021300 18006KT P6SM SCT100
     FM022100 16018G25KT P6SM FEW070 OVC100=



000
FTUS43 KMPX 012336
TAFMSP
TAF
KMSP 012336Z 0200/0306 27015KT P6SM BKN035
     FM020600 28008KT P6SM FEW250
     FM021500 19004KT P6SM SCT250
     FM021800 17009KT P6SM BKN100
     FM030000 15012G19KT P6SM SCT060 OVC100=



000
FTUS43 KMPX 012336
TAFSTC
TAF
KSTC 012336Z 0200/0224 29013KT P6SM FEW030 BKN050
     FM020400 29009KT P6SM FEW250
     FM021500 17005KT P6SM FEW050 SCT250
     FM022100 16010G18KT P6SM FEW070 OVC100=



000
FTUS43 KMPX 012336
TAFEAU
TAF
KEAU 012336Z 0200/0224 27015KT P6SM BKN040
     FM020600 28008KT P6SM FEW250
     FM021500 19004KT P6SM SCT250
     FM021800 17009KT P6SM BKN100=



000
FTUS43 KMPX 012336
TAFRWF
TAF
KRWF 012336Z 0200/0224 30015G24KT P6SM BKN050
     FM020300 30010KT P6SM SCT050
     FM021400 18007KT P6SM FEW100
     FM022100 16018G25KT P6SM FEW070 OVC100=



000
FTUS43 KMPX 012336
TAFSTC
TAF
KSTC 012336Z 0200/0224 29013KT P6SM FEW030 BKN050
     FM020400 29009KT P6SM FEW250
     FM021500 17005KT P6SM FEW050 SCT250
     FM022100 16010G18KT P6SM FEW070 OVC100=



000
FTUS43 KMPX 012336
TAFEAU
TAF
KEAU 012336Z 0200/0224 27015KT P6SM BKN040
     FM020600 28008KT P6SM FEW250
     FM021500 19004KT P6SM SCT250
     FM021800 17009KT P6SM BKN100=



000
FTUS43 KMPX 012336
TAFRWF
TAF
KRWF 012336Z 0200/0224 30015G24KT P6SM BKN050
     FM020300 30010KT P6SM SCT050
     FM021400 18007KT P6SM FEW100
     FM022100 16018G25KT P6SM FEW070 OVC100=



000
FTUS43 KMPX 012336
TAFMSP
TAF
KMSP 012336Z 0200/0306 27015KT P6SM BKN035
     FM020600 28008KT P6SM FEW250
     FM021500 19004KT P6SM SCT250
     FM021800 17009KT P6SM BKN100
     FM030000 15012G19KT P6SM SCT060 OVC100=



000
FTUS43 KMPX 012336
TAFAXN
TAF
KAXN 012336Z 0200/0224 29013G18KT 6SM -SN BKN030
     FM020200 29009KT P6SM FEW030 SCT250
     FM021300 18006KT P6SM SCT100
     FM022100 16018G25KT P6SM FEW070 OVC100=



000
FTUS43 KMPX 012055 AAA
TAFMSP
TAF AMD
KMSP 012055Z 0121/0224 27011G17KT P6SM FEW040 BKN250
     FM012300 27010KT P6SM BKN040
     FM020400 28007KT P6SM FEW250
     FM021500 VRB05KT P6SM FEW050 SCT250
     FM021900 18009KT P6SM SCT030 BKN100=



000
FTUS43 KMPX 011805 AAA
TAFSTC
TAF AMD
KSTC 011805Z 0118/0218 29012G18KT P6SM FEW250
     FM012200 29011G17KT P6SM SCT030 BKN050
     FM020300 28008KT P6SM FEW250
     FM021500 VRB05KT P6SM FEW050 SCT250=



000
FTUS43 KMPX 011723
TAFEAU
TAF
KEAU 011723Z 0118/0218 24008KT 5SM -SN OVC013
     FM011900 27009G15KT P6SM SCT050
     FM020400 VRB06KT P6SM FEW250=



000
FTUS43 KMPX 011723
TAFAXN
TAF
KAXN 011723Z 0118/0218 29013G19KT P6SM SCT250
     FM012100 29013G18KT 6SM -SN BKN030
     FM020200 29009KT P6SM FEW250
     FM021300 18008KT P6SM SCT030 BKN100=



000
FTUS43 KMPX 011723
TAFMSP
TAF
KMSP 011723Z 0118/0224 27011G17KT P6SM BKN250
     FM012300 27010KT P6SM SCT040
     FM020300 28007KT P6SM FEW250
     FM021500 VRB05KT P6SM FEW050 SCT250
     FM021900 18009KT P6SM SCT030 BKN100=



000
FTUS43 KMPX 011723
TAFRWF
TAF
KRWF 011723Z 0118/0218 29011G17KT P6SM SCT250
     FM020300 27008KT P6SM FEW250
     FM020600 VRB05KT P6SM SKC
     FM021300 18008KT P6SM SCT030 BKN100=



000
FTUS43 KMPX 011723
TAFSTC
TAF
KSTC 011723Z 0118/0218 25009KT P6SM FEW250
     FM011900 28011G17KT P6SM SCT030 BKN050
     FM020300 27008KT P6SM FEW250
     FM021500 VRB05KT P6SM FEW050 SCT250=



000
FTUS43 KMPX 011723
TAFSTC
TAF
KSTC 011723Z 0118/0218 25009KT P6SM FEW250
     FM011900 28011G17KT P6SM SCT030 BKN050
     FM020300 27008KT P6SM FEW250
     FM021500 VRB05KT P6SM FEW050 SCT250=



000
FTUS43 KMPX 011723
TAFRWF
TAF
KRWF 011723Z 0118/0218 29011G17KT P6SM SCT250
     FM020300 27008KT P6SM FEW250
     FM020600 VRB05KT P6SM SKC
     FM021300 18008KT P6SM SCT030 BKN100=



000
FTUS43 KMPX 011723
TAFAXN
TAF
KAXN 011723Z 0118/0218 29013G19KT P6SM SCT250
     FM012100 29013G18KT 6SM -SN BKN030
     FM020200 29009KT P6SM FEW250
     FM021300 18008KT P6SM SCT030 BKN100=



000
FTUS43 KMPX 011723
TAFMSP
TAF
KMSP 011723Z 0118/0224 27011G17KT P6SM BKN250
     FM012300 27010KT P6SM SCT040
     FM020300 28007KT P6SM FEW250
     FM021500 VRB05KT P6SM FEW050 SCT250
     FM021900 18009KT P6SM SCT030 BKN100=



000
FTUS43 KMPX 011723
TAFEAU
TAF
KEAU 011723Z 0118/0218 24008KT 5SM -SN OVC013
     FM011900 27009G15KT P6SM SCT050
     FM020400 VRB06KT P6SM FEW250=



000
FTUS43 KMPX 011516 AAB
TAFEAU
TAF AMD
KEAU 011516Z 0115/0212 19008KT 5SM -SN OVC013
      TEMPO 0115/0117 2SM -SN
     FM011700 25009KT P6SM SCT100
     FM012100 29009G15KT P6SM SCT050
     FM020400 28008KT P6SM SKC=



000
FTUS43 KMPX 011454 AAB
TAFMSP
TAF AMD
KMSP 011454Z 0115/0218 26009KT P6SM SCT018 BKN250
     FM011600 26011KT P6SM SCT200
     FM011900 27011G17KT P6SM SCT050
     FM020300 28009KT P6SM SKC
     FM021500 VRB05KT P6SM FEW050 SCT250=



000
FTUS43 KMPX 011454 AAB
TAFMSP
TAF AMD
KMSP 011454Z 0115/0218 26009KT P6SM SCT018 BKN250
     FM011600 26011KT P6SM SCT200
     FM011900 27011G17KT P6SM SCT050
     FM020300 28009KT P6SM SKC
     FM021500 VRB05KT P6SM FEW050 SCT250=



000
FTUS43 KMPX 011423 AAA
TAFEAU
TAF AMD
KEAU 011423Z 0114/0212 19008KT 5SM -SN OVC013
     FM011700 25009KT P6SM SCT100
     FM012100 29009G15KT P6SM SCT050
     FM020400 28008KT P6SM SKC=



000
FTUS43 KMPX 011423 AAA
TAFEAU
TAF AMD
KEAU 011423Z 0114/0212 19008KT 5SM -SN OVC013
     FM011700 25009KT P6SM SCT100
     FM012100 29009G15KT P6SM SCT050
     FM020400 28008KT P6SM SKC=



000
FTUS43 KMPX 011302 AAA
TAFMSP
TAF AMD
KMSP 011302Z 0113/0218 24008KT P6SM BKN017
      TEMPO 0113/0114 OVC013
     FM011500 26009KT P6SM FEW040 SCT200
     FM011900 27011G17KT P6SM SCT050
     FM020300 28009KT P6SM SKC
     FM021500 VRB05KT P6SM FEW050 SCT250=



000
FTUS43 KMPX 011302 AAA
TAFMSP
TAF AMD
KMSP 011302Z 0113/0218 24008KT P6SM BKN017
      TEMPO 0113/0114 OVC013
     FM011500 26009KT P6SM FEW040 SCT200
     FM011900 27011G17KT P6SM SCT050
     FM020300 28009KT P6SM SKC
     FM021500 VRB05KT P6SM FEW050 SCT250=



000
FTUS43 KMPX 011123
TAFEAU
TAF
KEAU 011123Z 0112/0212 19008KT P6SM BKN013
      TEMPO 0112/0114 6SM -SN
     FM011500 25009KT P6SM SCT100
     FM012100 29009G15KT P6SM SCT050
     FM020400 28008KT P6SM SKC=



000
FTUS43 KMPX 011123
TAFAXN
TAF
KAXN 011123Z 0112/0212 27010KT P6SM SCT100
     FM011800 29012G18KT P6SM SCT020 BKN040
     FM020200 29009KT P6SM SKC=



000
FTUS43 KMPX 011123
TAFRWF
TAF
KRWF 011123Z 0112/0212 27008KT P6SM FEW030 SCT100
     FM011400 26009KT P6SM SCT100
     FM011800 29011G17KT P6SM SCT100
     FM020300 27008KT P6SM SKC=



000
FTUS43 KMPX 011123
TAFSTC
TAF
KSTC 011123Z 0112/0212 21007KT P6SM SCT030 BKN100
      TEMPO 0112/0113 BKN015
     FM011400 25009KT P6SM SCT100
     FM011900 28011G17KT P6SM FEW020 BKN050
     FM020300 27008KT P6SM SKC=



000
FTUS43 KMPX 011123
TAFMSP
TAF
KMSP 011123Z 0112/0218 23010KT P6SM BKN017
      TEMPO 0112/0113 6SM BR BKN010
     FM011400 26009KT P6SM FEW040 SCT200
     FM011900 27011G17KT P6SM SCT050
     FM020300 28009KT P6SM SKC
     FM021500 VRB05KT P6SM FEW050 SCT250=



000
FTUS43 KMPX 011123
TAFAXN
TAF
KAXN 011123Z 0112/0212 27010KT P6SM SCT100
     FM011800 29012G18KT P6SM SCT020 BKN040
     FM020200 29009KT P6SM SKC=



000
FTUS43 KMPX 011123
TAFRWF
TAF
KRWF 011123Z 0112/0212 27008KT P6SM FEW030 SCT100
     FM011400 26009KT P6SM SCT100
     FM011800 29011G17KT P6SM SCT100
     FM020300 27008KT P6SM SKC=



000
FTUS43 KMPX 011123
TAFSTC
TAF
KSTC 011123Z 0112/0212 21007KT P6SM SCT030 BKN100
      TEMPO 0112/0113 BKN015
     FM011400 25009KT P6SM SCT100
     FM011900 28011G17KT P6SM FEW020 BKN050
     FM020300 27008KT P6SM SKC=



000
FTUS43 KMPX 011123
TAFMSP
TAF
KMSP 011123Z 0112/0218 23010KT P6SM BKN017
      TEMPO 0112/0113 6SM BR BKN010
     FM011400 26009KT P6SM FEW040 SCT200
     FM011900 27011G17KT P6SM SCT050
     FM020300 28009KT P6SM SKC
     FM021500 VRB05KT P6SM FEW050 SCT250=



000
FTUS43 KMPX 011123
TAFEAU
TAF
KEAU 011123Z 0112/0212 19008KT P6SM BKN013
      TEMPO 0112/0114 6SM -SN
     FM011500 25009KT P6SM SCT100
     FM012100 29009G15KT P6SM SCT050
     FM020400 28008KT P6SM SKC=



000
FTUS43 KMPX 011024 AAB
TAFMSP
TAF AMD
KMSP 011024Z 0110/0212 20009KT P6SM BKN022
      TEMPO 0111/0113 BKN017
     FM011400 26009KT P6SM SCT100
     FM011800 27011G16KT P6SM SCT100
     FM020000 28009KT P6SM SKC=



000
FTUS43 KMPX 011024 AAB
TAFMSP
TAF AMD
KMSP 011024Z 0110/0212 20009KT P6SM BKN022
      TEMPO 0111/0113 BKN017
     FM011400 26009KT P6SM SCT100
     FM011800 27011G16KT P6SM SCT100
     FM020000 28009KT P6SM SKC=



000
FTUS43 KMPX 010849 AAA
TAFMSP
TAF AMD
KMSP 010849Z 0109/0212 19007KT P6SM SCT070
     FM011100 23008KT P6SM SCT030 BKN100
      TEMPO 0111/0113 BKN020
     FM011400 26009KT P6SM SCT100
     FM011800 27011G16KT P6SM SCT100
     FM020000 28009KT P6SM SKC=



000
FTUS43 KMPX 010849 AAA
TAFMSP
TAF AMD
KMSP 010849Z 0109/0212 19007KT P6SM SCT070
     FM011100 23008KT P6SM SCT030 BKN100
      TEMPO 0111/0113 BKN020
     FM011400 26009KT P6SM SCT100
     FM011800 27011G16KT P6SM SCT100
     FM020000 28009KT P6SM SKC=



000
FTUS43 KMPX 010532
TAFAXN
TAF
KAXN 010532Z 0106/0206 22008KT P6SM SCT025 BKN050
      TEMPO 0106/0109 BKN015
     FM010900 27005KT P6SM SCT100
     FM011300 28009KT P6SM SCT100
     FM012100 29009G15KT P6SM FEW020=



000
FTUS43 KMPX 010532
TAFSTC
TAF
KSTC 010532Z 0106/0206 19009KT 6SM -SN BKN035 OVC070
      TEMPO 0109/0111 BKN025
     FM011100 25006KT P6SM SCT030 BKN100
     FM011400 26009KT P6SM SCT100
     FM012100 28009G16KT P6SM FEW020=



000
FTUS43 KMPX 010532
TAFEAU
TAF
KEAU 010532Z 0106/0206 19008KT 6SM -SN BKN035
      TEMPO 0106/0107 BKN030
     FM011000 19007KT P6SM FEW030 BKN050
     FM011500 25009KT P6SM SCT100
      TEMPO 0118/0122 26010G16KT=



000
FTUS43 KMPX 010532
TAFMSP
TAF
KMSP 010532Z 0106/0212 18007KT P6SM OVC050
     FM011000 22008KT P6SM SCT030 BKN100
     FM011400 26009KT P6SM SCT100
     FM011800 27011G16KT P6SM SCT100
     FM020000 28009KT P6SM SKC=



000
FTUS43 KMPX 010532
TAFRWF
TAF
KRWF 010532Z 0106/0206 19013KT P6SM BKN060
     FM010900 30007KT P6SM FEW030 SCT080
     FM011400 26009KT P6SM SCT100
     FM012000 29010G15KT P6SM SCT100=



000
FTUS43 KMPX 010329 AAA
TAFSTC
TAF AMD
KSTC 010329Z 0103/0124 19009KT 6SM -SN BKN035 OVC050
     FM010900 25006KT P6SM SCT030 BKN100
     FM011400 26009KT P6SM SCT150=



000
FTUS43 KMPX 010328 AAA
TAFAXN
TAF AMD
KAXN 010328Z 0103/0124 20009KT 6SM -SN OVC070
     FM010500 27008KT P6SM SCT025 BKN150
     FM011300 28009KT P6SM SCT150=



000
FTUS43 KMPX 010247 AAA
TAFMSP
TAF AMD
KMSP 010247Z 0103/0206 18009KT P6SM BKN035 OVC050
     FM011000 22008KT P6SM SCT030 BKN100
     FM011400 26009KT P6SM SCT150
     FM011800 27011G16KT P6SM SCT150
     FM020000 28009KT P6SM FEW150=



000
FTUS43 KMPX 010247 AAA
TAFMSP
TAF AMD
KMSP 010247Z 0103/0206 18009KT P6SM BKN035 OVC050
     FM011000 22008KT P6SM SCT030 BKN100
     FM011400 26009KT P6SM SCT150
     FM011800 27011G16KT P6SM SCT150
     FM020000 28009KT P6SM FEW150=



000
FTUS43 KMPX 282330
TAFMSP
TAF
KMSP 282330Z 0100/0206 19013G18KT P6SM SCT050 BKN100
      TEMPO 0100/0102 BKN030
     FM010200 18009KT P6SM BKN030 OVC050
     FM011000 22008KT P6SM SCT030 BKN100
     FM011400 26009KT P6SM SCT150
     FM011800 27011G16KT P6SM SCT150
     FM020000 28009KT P6SM FEW150=



000
FTUS43 KMPX 282330
TAFSTC
TAF
KSTC 282330Z 0100/0124 18011G17KT P6SM SCT040 BKN100
      TEMPO 0100/0103 BKN030
     FM010300 19009KT P6SM BKN030 OVC050
     FM010900 25006KT P6SM SCT030 BKN100
     FM011400 26009KT P6SM SCT150=



000
FTUS43 KMPX 282330
TAFMSP
TAF
KMSP 282330Z 0100/0206 19013G18KT P6SM SCT050 BKN100
      TEMPO 0100/0102 BKN030
     FM010200 18009KT P6SM BKN030 OVC050
     FM011000 22008KT P6SM SCT030 BKN100
     FM011400 26009KT P6SM SCT150
     FM011800 27011G16KT P6SM SCT150
     FM020000 28009KT P6SM FEW150=



000
FTUS43 KMPX 282330
TAFSTC
TAF
KSTC 282330Z 0100/0124 18011G17KT P6SM SCT040 BKN100
      TEMPO 0100/0103 BKN030
     FM010300 19009KT P6SM BKN030 OVC050
     FM010900 25006KT P6SM SCT030 BKN100
     FM011400 26009KT P6SM SCT150=



000
FTUS43 KMPX 282330
TAFEAU
TAF
KEAU 282330Z 0100/0124 19008KT P6SM FEW200
     FM010600 19007KT P6SM OVC030
     FM010800 19007KT 6SM -SN OVC025
     FM011300 21008KT P6SM SCT030 BKN100
     FM011600 25007KT P6SM SCT250=



000
FTUS43 KMPX 282330
TAFRWF
TAF
KRWF 282330Z 0100/0124 19013KT P6SM BKN035 OVC060
     FM010900 27007KT P6SM SCT030 SCT100
     FM011400 26009KT P6SM SCT150=



000
FTUS43 KMPX 282330
TAFEAU
TAF
KEAU 282330Z 0100/0124 19008KT P6SM FEW200
     FM010600 19007KT P6SM OVC030
     FM010800 19007KT 6SM -SN OVC025
     FM011300 21008KT P6SM SCT030 BKN100
     FM011600 25007KT P6SM SCT250=



000
FTUS43 KMPX 282330
TAFAXN
TAF
KAXN 282330Z 0100/0124 19012KT P6SM BKN035 OVC040
      TEMPO 0100/0103 6SM -SN BKN025
     FM010300 21011KT 6SM -SN OVC025
     FM010500 27008KT P6SM SCT025 BKN150
     FM011300 28009KT P6SM SCT150=



000
FTUS43 KMPX 282330
TAFRWF
TAF
KRWF 282330Z 0100/0124 19013KT P6SM BKN035 OVC060
     FM010900 27007KT P6SM SCT030 SCT100
     FM011400 26009KT P6SM SCT150=



000
FTUS43 KMPX 282330
TAFAXN
TAF
KAXN 282330Z 0100/0124 19012KT P6SM BKN035 OVC040
      TEMPO 0100/0103 6SM -SN BKN025
     FM010300 21011KT 6SM -SN OVC025
     FM010500 27008KT P6SM SCT025 BKN150
     FM011300 28009KT P6SM SCT150=



000
FTUS43 KMPX 282056 AAA
TAFMSP
TAF AMD
KMSP 282056Z 2821/0124 19013G18KT P6SM SCT050 BKN100
     FM010200 18009KT P6SM BKN030 OVC050
     FM011000 21008KT P6SM SCT030 BKN100
     FM011400 25007KT P6SM SCT250
     FM011800 27011G16KT P6SM BKN050=



000
FTUS43 KMPX 282056 AAA
TAFMSP
TAF AMD
KMSP 282056Z 2821/0124 19013G18KT P6SM SCT050 BKN100
     FM010200 18009KT P6SM BKN030 OVC050
     FM011000 21008KT P6SM SCT030 BKN100
     FM011400 25007KT P6SM SCT250
     FM011800 27011G16KT P6SM BKN050=



000
FTUS43 KMPX 282007 AAA
TAFSTC
TAF AMD
KSTC 282007Z 2820/0118 19015G22KT P6SM SCT200
     FM282100 18014G20KT P6SM SCT040 BKN100
     FM010100 19009KT P6SM BKN030 OVC050
     FM010900 25006KT P6SM SCT030 BKN100
     FM011200 26008KT P6SM BKN150=



000
FTUS43 KMPX 281720
TAFMSP
TAF
KMSP 281720Z 2818/0124 19011G17KT P6SM SCT200
     FM282200 18011G16KT P6SM SCT050 BKN100
     FM010200 18009KT P6SM BKN030 OVC050
     FM011000 21008KT P6SM SCT030 BKN100
     FM011400 25007KT P6SM SCT250
     FM011800 27011G16KT P6SM BKN050=



000
FTUS43 KMPX 281720
TAFEAU
TAF
KEAU 281720Z 2818/0118 19008KT P6SM FEW200
     FM010500 19007KT P6SM OVC030
     FM010800 19007KT 6SM -SN OVC025
     FM011300 21008KT P6SM SCT030 BKN100
     FM011600 24007KT P6SM SCT250=



000
FTUS43 KMPX 281720
TAFRWF
TAF
KRWF 281720Z 2818/0118 18011G17KT P6SM BKN100
     FM010000 18010KT P6SM BKN030 OVC060
     FM010900 27007KT P6SM SCT030 SCT100=



000
FTUS43 KMPX 281720
TAFAXN
TAF
KAXN 281720Z 2818/0118 18013G21KT P6SM BKN100
     FM010000 19012KT P6SM BKN025 OVC040
     FM010300 21011KT 6SM -SN OVC025
     FM010700 27008KT P6SM SCT025 BKN150
     FM011100 26008KT P6SM BKN150=



000
FTUS43 KMPX 281720
TAFSTC
TAF
KSTC 281720Z 2818/0118 19010G16KT P6SM SCT200
     FM282200 18011G17KT P6SM SCT040 BKN100
     FM010100 19009KT P6SM BKN030 OVC050
     FM010900 25006KT P6SM SCT030 BKN100
     FM011200 26008KT P6SM BKN150=



000
FTUS43 KMPX 281439 AAA
TAFMSP
TAF AMD
KMSP 281439Z 2815/0118 16007KT P6SM SCT250
     FM281800 17010G18KT P6SM SCT040 BKN100
     FM010200 17009KT P6SM BKN030 OVC050
     FM011000 21006KT P6SM SCT030 BKN100
     FM011500 25007KT P6SM SCT030 SCT100=



000
FTUS43 KMPX 281439 AAA
TAFMSP
TAF AMD
KMSP 281439Z 2815/0118 16007KT P6SM SCT250
     FM281800 17010G18KT P6SM SCT040 BKN100
     FM010200 17009KT P6SM BKN030 OVC050
     FM011000 21006KT P6SM SCT030 BKN100
     FM011500 25007KT P6SM SCT030 SCT100=



    US Dept of Commerce
    National Oceanic and Atmospheric Administration
    National Weather Service
    1325 East West Highway
    Silver Spring, MD 20910
    Page Author: NWS Internet Services Team
Disclaimer
Information Quality
Credits
Glossary
Privacy Policy
Freedom of Information Act (FOIA)
About Us
Career Opportunities